Wahpeton, North Dakota
Current Conditions -  °F | °C
As of 2:35 PM on Monday 26 Jan 2015 (Local Time) from KBWP Reporting Station
Overcast Overcast  
Wind Chill: 32°   Ceiling: 2900
Heat Index: 39°   Visibility: 10mi
Dew Point: 32°   Wind: 13mph
Humidity: 75%   Direction: 340°NNW
Pressure: 29.86"   Gusts: 20mph
Location:  46.26°N, 96.6°W
Report Text: KBWP 262035Z AUTO 34011G17KT 10SM OVC029 04/00 A2986 RMK AO1
Loading
Personal Weather Stations






























Interactive Weather Map New forecast layout! Learn more

10-Day Weather Forecast

Advertisements
Track Severe Weather on mobile